Norrland — C4KF2 — position and weather

sailwx.info

Track history (hours):
 
Tides and Currents Weather Stations Pressure Air Temp Water Temp Dewpoint Dewpoint Depression Visibility Wind Speed Wind Dir Waves Ship Positions

Norrland

Last reported at 2016-May-27 23:22 UTC. Time now 2016-May-28 19:44 UTC.
Position N 35°59' W 005°31'.

Length 118 m; draft 7.4 m.

Type: Cargo ship. MMSI: 212521000.

Date/timePositionNaut miles runAvg speedWind from/ knotsBaromVisibWave heightAir tempDewpointWater temp
2016-May-27 23:22N 35°59' W 005°31'6 7.1
2016-May-27 22:33N 36°01' W 005°24'8 7.7
2016-May-27 21:33N 36°03' W 005°15'  
2016-May-25 09:23N 36°03' W 005°12'1012.0
2016-May-25 08:33N 35°59' W 005°23'  
2016-May-21 01:32N 37°10' W 009°35'2510.9
2016-May-20 23:16N 37°35' W 009°34'811.1
2016-May-20 22:33N 37°42' W 009°32'1010.2
2016-May-20 21:33N 37°51' W 009°38'1110.7
2016-May-20 20:33N 38°00' W 009°45'1111.3
2016-May-20 19:33N 38°10' W 009°51'1211.3
2016-May-20 18:32N 38°21' W 009°57'1111.4
2016-May-20 17:33N 38°31' W 010°03'1111.0
2016-May-20 16:33N 38°42' W 010°07'  
2016-May-17 23:26N 48°59' W 005°30'  
Track history (hours):
 
Tides and Currents Weather Stations Pressure Air Temp Water Temp Dewpoint Dewpoint Depression Visibility Wind Speed Wind Dir Waves Ship Positions

Norrland

Last reported at 2016-May-27 23:22 UTC. Time now 2016-May-28 19:44 UTC.
Position N 35°59' W 005°31'.

Length 118 m; draft 7.4 m.

Type: Cargo ship. MMSI: 212521000.

Date/timePositionNaut miles runAvg speedWind from/ knotsBaromVisibWave heightAir tempDewpointWater temp
2016-May-27 23:22N 35°59' W 005°31'6 7.1
2016-May-27 22:33N 36°01' W 005°24'8 7.7
2016-May-27 21:33N 36°03' W 005°15'  
2016-May-25 09:23N 36°03' W 005°12'1012.0
2016-May-25 08:33N 35°59' W 005°23'  
2016-May-21 01:32N 37°10' W 009°35'2510.9
2016-May-20 23:16N 37°35' W 009°34'811.1
2016-May-20 22:33N 37°42' W 009°32'1010.2
2016-May-20 21:33N 37°51' W 009°38'1110.7
2016-May-20 20:33N 38°00' W 009°45'1111.3
2016-May-20 19:33N 38°10' W 009°51'1211.3
2016-May-20 18:32N 38°21' W 009°57'1111.4
2016-May-20 17:33N 38°31' W 010°03'1111.0
2016-May-20 16:33N 38°42' W 010°07'  
2016-May-17 23:26N 48°59' W 005°30'  

Dump ship's entire track history